sensor_id;sensor_type;location;lat;lon;timestamp;temperature;humidity
17252;DHT22;8742;51.716;8.790;2024-01-10T00:00:41;-5.20;99.90
17252;DHT22;8742;51.716;8.790;2024-01-10T00:03:09;-5.20;99.90
17252;DHT22;8742;51.716;8.790;2024-01-10T00:05:36;-5.20;99.90
17252;DHT22;8742;51.716;8.790;2024-01-10T00:08:03;-5.20;99.90
17252;DHT22;8742;51.716;8.790;2024-01-10T00:10:31;-5.20;99.90
17252;DHT22;8742;51.716;8.790;2024-01-10T00:12:58;-5.10;99.90
17252;DHT22;8742;51.716;8.790;2024-01-10T00:15:25;-5.10;99.90
17252;DHT22;8742;51.716;8.790;2024-01-10T00:17:52;-5.10;99.90
17252;DHT22;8742;51.716;8.790;2024-01-10T00:20:20;-5.10;99.90
17252;DHT22;8742;51.716;8.790;2024-01-10T00:22:47;-5.10;99.90
17252;DHT22;8742;51.716;8.790;2024-01-10T00:25:13;-5.00;99.90
17252;DHT22;8742;51.716;8.790;2024-01-10T00:27:40;-5.00;99.90
17252;DHT22;8742;51.716;8.790;2024-01-10T00:30:08;-5.00;99.90
17252;DHT22;8742;51.716;8.790;2024-01-10T00:32:35;-5.00;99.90
17252;DHT22;8742;51.716;8.790;2024-01-10T00:35:02;-5.00;99.90
17252;DHT22;8742;51.716;8.790;2024-01-10T00:37:30;-5.10;99.90
17252;DHT22;8742;51.716;8.790;2024-01-10T00:39:57;-5.10;99.90
17252;DHT22;8742;51.716;8.790;2024-01-10T00:42:23;-5.10;99.90
17252;DHT22;8742;51.716;8.790;2024-01-10T00:44:50;-5.10;99.90
17252;DHT22;8742;51.716;8.790;2024-01-10T00:47:17;-5.20;99.90
17252;DHT22;8742;51.716;8.790;2024-01-10T00:49:44;-5.20;99.90
17252;DHT22;8742;51.716;8.790;2024-01-10T00:52:11;-5.20;99.90
17252;DHT22;8742;51.716;8.790;2024-01-10T00:54:39;-5.30;99.90
17252;DHT22;8742;51.716;8.790;2024-01-10T00:57:05;-5.30;99.90
17252;DHT22;8742;51.716;8.790;2024-01-10T00:59:32;-5.40;99.90
17252;DHT22;8742;51.716;8.790;2024-01-10T01:01:59;-5.50;99.90
17252;DHT22;8742;51.716;8.790;2024-01-10T01:04:26;-5.50;99.90
17252;DHT22;8742;51.716;8.790;2024-01-10T01:06:53;-5.60;99.90
17252;DHT22;8742;51.716;8.790;2024-01-10T01:09:20;-5.60;99.90
17252;DHT22;8742;51.716;8.790;2024-01-10T01:11:48;-5.60;99.90
17252;DHT22;8742;51.716;8.790;2024-01-10T01:14:15;-5.60;99.90
17252;DHT22;8742;51.716;8.790;2024-01-10T01:16:41;-5.60;99.90
17252;DHT22;8742;51.716;8.790;2024-01-10T01:19:08;-5.60;99.90
17252;DHT22;8742;51.716;8.790;2024-01-10T01:21:35;-5.60;99.90
17252;DHT22;8742;51.716;8.790;2024-01-10T01:24:02;-5.60;99.90
17252;DHT22;8742;51.716;8.790;2024-01-10T01:26:29;-5.50;99.90
17252;DHT22;8742;51.716;8.790;2024-01-10T01:28:58;-5.50;99.90
17252;DHT22;8742;51.716;8.790;2024-01-10T01:31:24;-5.50;99.90
17252;DHT22;8742;51.716;8.790;2024-01-10T01:33:51;-5.50;99.90
17252;DHT22;8742;51.716;8.790;2024-01-10T01:36:18;-5.50;99.90
17252;DHT22;8742;51.716;8.790;2024-01-10T01:38:45;-5.50;99.90
17252;DHT22;8742;51.716;8.790;2024-01-10T01:41:12;-5.50;99.90
17252;DHT22;8742;51.716;8.790;2024-01-10T01:43:40;-5.50;99.90
17252;DHT22;8742;51.716;8.790;2024-01-10T01:46:09;-5.50;99.90
17252;DHT22;8742;51.716;8.790;2024-01-10T01:48:36;-5.50;99.90
17252;DHT22;8742;51.716;8.790;2024-01-10T01:51:06;-5.50;99.90
17252;DHT22;8742;51.716;8.790;2024-01-10T01:53:33;-5.50;99.90
17252;DHT22;8742;51.716;8.790;2024-01-10T01:56:03;-5.50;99.90
17252;DHT22;8742;51.716;8.790;2024-01-10T01:58:32;-5.60;99.90
17252;DHT22;8742;51.716;8.790;2024-01-10T02:01:00;-5.60;99.90
17252;DHT22;8742;51.716;8.790;2024-01-10T02:03:30;-5.70;99.90
17252;DHT22;8742;51.716;8.790;2024-01-10T02:05:57;-5.70;99.90
17252;DHT22;8742;51.716;8.790;2024-01-10T02:08:24;-5.80;99.90
17252;DHT22;8742;51.716;8.790;2024-01-10T02:10:51;-5.80;99.90
17252;DHT22;8742;51.716;8.790;2024-01-10T02:13:18;-5.90;99.90
17252;DHT22;8742;51.716;8.790;2024-01-10T02:15:45;-5.90;99.90
17252;DHT22;8742;51.716;8.790;2024-01-10T02:18:12;-5.90;99.90
17252;DHT22;8742;51.716;8.790;2024-01-10T02:20:43;-6.00;99.90
17252;DHT22;8742;51.716;8.790;2024-01-10T02:23:10;-6.00;99.90
17252;DHT22;8742;51.716;8.790;2024-01-10T02:25:38;-6.00;99.90
17252;DHT22;8742;51.716;8.790;2024-01-10T02:28:05;-6.00;99.90
17252;DHT22;8742;51.716;8.790;2024-01-10T02:30:32;-6.10;99.90
17252;DHT22;8742;51.716;8.790;2024-01-10T02:32:59;-6.10;99.90
17252;DHT22;8742;51.716;8.790;2024-01-10T02:35:26;-6.10;99.90
17252;DHT22;8742;51.716;8.790;2024-01-10T02:37:54;-6.10;99.90
17252;DHT22;8742;51.716;8.790;2024-01-10T02:40:21;-6.10;99.90
17252;DHT22;8742;51.716;8.790;2024-01-10T02:42:49;-6.10;99.90
17252;DHT22;8742;51.716;8.790;2024-01-10T02:45:17;-6.10;99.90
17252;DHT22;8742;51.716;8.790;2024-01-10T02:47:44;-6.20;99.90
17252;DHT22;8742;51.716;8.790;2024-01-10T02:50:11;-6.20;99.90
17252;DHT22;8742;51.716;8.790;2024-01-10T02:52:38;-6.20;99.90
17252;DHT22;8742;51.716;8.790;2024-01-10T02:55:05;-6.30;99.90
17252;DHT22;8742;51.716;8.790;2024-01-10T02:57:33;-6.30;99.90
17252;DHT22;8742;51.716;8.790;2024-01-10T03:00:01;-6.30;99.90
17252;DHT22;8742;51.716;8.790;2024-01-10T03:02:30;-6.40;99.90
17252;DHT22;8742;51.716;8.790;2024-01-10T03:04:56;-6.40;99.90
17252;DHT22;8742;51.716;8.790;2024-01-10T03:07:23;-6.50;99.90
17252;DHT22;8742;51.716;8.790;2024-01-10T03:09:51;-6.50;99.90
17252;DHT22;8742;51.716;8.790;2024-01-10T03:12:18;-6.50;99.90
17252;DHT22;8742;51.716;8.790;2024-01-10T03:14:44;-6.60;99.90
17252;DHT22;8742;51.716;8.790;2024-01-10T03:17:13;-6.60;99.90
17252;DHT22;8742;51.716;8.790;2024-01-10T03:19:39;-6.60;99.90
17252;DHT22;8742;51.716;8.790;2024-01-10T03:22:09;-6.60;99.90
17252;DHT22;8742;51.716;8.790;2024-01-10T03:24:36;-6.50;99.90
17252;DHT22;8742;51.716;8.790;2024-01-10T03:27:03;-6.50;99.90
17252;DHT22;8742;51.716;8.790;2024-01-10T03:29:30;-6.50;99.90
17252;DHT22;8742;51.716;8.790;2024-01-10T03:31:57;-6.50;99.90
17252;DHT22;8742;51.716;8.790;2024-01-10T03:34:25;-6.40;99.90
17252;DHT22;8742;51.716;8.790;2024-01-10T03:36:52;-6.40;99.90
17252;DHT22;8742;51.716;8.790;2024-01-10T03:39:19;-6.40;99.90
17252;DHT22;8742;51.716;8.790;2024-01-10T03:41:46;-6.30;99.90
17252;DHT22;8742;51.716;8.790;2024-01-10T03:44:13;-6.30;99.90
17252;DHT22;8742;51.716;8.790;2024-01-10T03:46:39;-6.30;99.90
17252;DHT22;8742;51.716;8.790;2024-01-10T03:49:06;-6.30;99.90
17252;DHT22;8742;51.716;8.790;2024-01-10T03:51:34;-6.30;99.90
17252;DHT22;8742;51.716;8.790;2024-01-10T03:54:01;-6.30;99.90
17252;DHT22;8742;51.716;8.790;2024-01-10T03:56:28;-6.30;99.90
17252;DHT22;8742;51.716;8.790;2024-01-10T03:58:55;-6.30;99.90
17252;DHT22;8742;51.716;8.790;2024-01-10T04:01:22;-6.40;99.90
17252;DHT22;8742;51.716;8.790;2024-01-10T04:03:50;-6.40;99.90
17252;DHT22;8742;51.716;8.790;2024-01-10T04:06:16;-6.40;99.90
17252;DHT22;8742;51.716;8.790;2024-01-10T04:08:45;-6.40;99.90
17252;DHT22;8742;51.716;8.790;2024-01-10T04:11:11;-6.50;99.90
17252;DHT22;8742;51.716;8.790;2024-01-10T04:13:38;-6.50;99.90
17252;DHT22;8742;51.716;8.790;2024-01-10T04:16:05;-6.50;99.90
17252;DHT22;8742;51.716;8.790;2024-01-10T04:18:32;-6.50;99.90
17252;DHT22;8742;51.716;8.790;2024-01-10T04:20:59;-6.40;99.90
17252;DHT22;8742;51.716;8.790;2024-01-10T04:23:25;-6.40;99.90
17252;DHT22;8742;51.716;8.790;2024-01-10T04:25:54;-6.40;99.90
17252;DHT22;8742;51.716;8.790;2024-01-10T04:28:20;-6.40;99.90
17252;DHT22;8742;51.716;8.790;2024-01-10T04:30:47;-6.30;99.90
17252;DHT22;8742;51.716;8.790;2024-01-10T04:33:14;-6.30;99.90
17252;DHT22;8742;51.716;8.790;2024-01-10T04:35:41;-6.40;99.90
17252;DHT22;8742;51.716;8.790;2024-01-10T04:38:08;-6.40;99.90
17252;DHT22;8742;51.716;8.790;2024-01-10T04:40:34;-6.40;99.90
17252;DHT22;8742;51.716;8.790;2024-01-10T04:43:03;-6.40;99.90
17252;DHT22;8742;51.716;8.790;2024-01-10T04:45:30;-6.40;99.90
17252;DHT22;8742;51.716;8.790;2024-01-10T04:47:57;-6.40;99.90
17252;DHT22;8742;51.716;8.790;2024-01-10T04:50:24;-6.40;99.90
17252;DHT22;8742;51.716;8.790;2024-01-10T04:52:51;-6.40;99.90
17252;DHT22;8742;51.716;8.790;2024-01-10T04:55:18;-6.40;99.90
17252;DHT22;8742;51.716;8.790;2024-01-10T04:57:44;-6.40;99.90
17252;DHT22;8742;51.716;8.790;2024-01-10T05:00:13;-6.40;99.90
17252;DHT22;8742;51.716;8.790;2024-01-10T05:02:40;-6.50;99.90
17252;DHT22;8742;51.716;8.790;2024-01-10T05:05:07;-6.50;99.90
17252;DHT22;8742;51.716;8.790;2024-01-10T05:07:34;-6.50;99.90
17252;DHT22;8742;51.716;8.790;2024-01-10T05:10:01;-6.50;99.90
17252;DHT22;8742;51.716;8.790;2024-01-10T05:12:28;-6.50;99.90
17252;DHT22;8742;51.716;8.790;2024-01-10T05:14:54;-6.50;99.90
17252;DHT22;8742;51.716;8.790;2024-01-10T05:17:23;-6.60;99.90
17252;DHT22;8742;51.716;8.790;2024-01-10T05:19:50;-6.60;99.90
17252;DHT22;8742;51.716;8.790;2024-01-10T05:22:18;-6.60;99.90
17252;DHT22;8742;51.716;8.790;2024-01-10T05:24:45;-6.50;99.90
17252;DHT22;8742;51.716;8.790;2024-01-10T05:27:12;-6.50;99.90
17252;DHT22;8742;51.716;8.790;2024-01-10T05:29:39;-6.50;99.90
17252;DHT22;8742;51.716;8.790;2024-01-10T05:32:06;-6.50;99.90
17252;DHT22;8742;51.716;8.790;2024-01-10T05:34:34;-6.50;99.90
17252;DHT22;8742;51.716;8.790;2024-01-10T05:37:01;-6.50;99.90
17252;DHT22;8742;51.716;8.790;2024-01-10T05:39:27;-6.50;99.90
17252;DHT22;8742;51.716;8.790;2024-01-10T05:41:54;-6.50;99.90
17252;DHT22;8742;51.716;8.790;2024-01-10T05:44:21;-6.50;99.90
17252;DHT22;8742;51.716;8.790;2024-01-10T05:46:48;-6.50;99.90
17252;DHT22;8742;51.716;8.790;2024-01-10T05:49:15;-6.50;99.90
17252;DHT22;8742;51.716;8.790;2024-01-10T05:51:43;-6.50;99.90
17252;DHT22;8742;51.716;8.790;2024-01-10T05:54:10;-6.50;99.90
17252;DHT22;8742;51.716;8.790;2024-01-10T05:56:36;-6.50;99.90
17252;DHT22;8742;51.716;8.790;2024-01-10T05:59:04;-6.50;99.90
17252;DHT22;8742;51.716;8.790;2024-01-10T06:01:30;-6.50;99.90
17252;DHT22;8742;51.716;8.790;2024-01-10T06:03:57;-6.50;99.90
17252;DHT22;8742;51.716;8.790;2024-01-10T06:06:24;-6.50;99.90
17252;DHT22;8742;51.716;8.790;2024-01-10T06:08:52;-6.50;99.90
17252;DHT22;8742;51.716;8.790;2024-01-10T06:11:19;-6.50;99.90
17252;DHT22;8742;51.716;8.790;2024-01-10T06:13:46;-6.50;99.90
17252;DHT22;8742;51.716;8.790;2024-01-10T06:16:13;-6.50;99.90
17252;DHT22;8742;51.716;8.790;2024-01-10T06:18:40;-6.50;99.90
17252;DHT22;8742;51.716;8.790;2024-01-10T06:21:06;-6.50;99.90
17252;DHT22;8742;51.716;8.790;2024-01-10T06:23:33;-6.50;99.90
17252;DHT22;8742;51.716;8.790;2024-01-10T06:26:02;-6.50;99.90
17252;DHT22;8742;51.716;8.790;2024-01-10T06:28:29;-6.60;99.90
17252;DHT22;8742;51.716;8.790;2024-01-10T06:30:56;-6.60;99.90
17252;DHT22;8742;51.716;8.790;2024-01-10T06:33:22;-6.70;99.90
17252;DHT22;8742;51.716;8.790;2024-01-10T06:35:49;-6.70;99.90
17252;DHT22;8742;51.716;8.790;2024-01-10T06:38:16;-6.70;99.90
17252;DHT22;8742;51.716;8.790;2024-01-10T06:40:45;-6.70;99.90
17252;DHT22;8742;51.716;8.790;2024-01-10T06:43:14;-6.80;99.90
17252;DHT22;8742;51.716;8.790;2024-01-10T06:45:41;-6.80;99.90
17252;DHT22;8742;51.716;8.790;2024-01-10T06:48:08;-6.80;99.90
17252;DHT22;8742;51.716;8.790;2024-01-10T06:50:36;-6.80;99.90
17252;DHT22;8742;51.716;8.790;2024-01-10T06:53:03;-6.90;99.90
17252;DHT22;8742;51.716;8.790;2024-01-10T06:55:30;-6.90;99.90
17252;DHT22;8742;51.716;8.790;2024-01-10T06:57:57;-6.80;99.90
17252;DHT22;8742;51.716;8.790;2024-01-10T07:00:25;-6.80;99.90
17252;DHT22;8742;51.716;8.790;2024-01-10T07:02:52;-6.80;99.90
17252;DHT22;8742;51.716;8.790;2024-01-10T07:05:19;-6.80;99.90
17252;DHT22;8742;51.716;8.790;2024-01-10T07:07:46;-6.80;99.90
17252;DHT22;8742;51.716;8.790;2024-01-10T07:10:15;-6.80;99.90
17252;DHT22;8742;51.716;8.790;2024-01-10T07:12:42;-6.80;99.90
17252;DHT22;8742;51.716;8.790;2024-01-10T07:15:09;-6.80;99.90
17252;DHT22;8742;51.716;8.790;2024-01-10T07:17:38;-6.80;99.90
17252;DHT22;8742;51.716;8.790;2024-01-10T07:20:06;-6.80;99.90
17252;DHT22;8742;51.716;8.790;2024-01-10T07:22:34;-6.80;99.90
17252;DHT22;8742;51.716;8.790;2024-01-10T07:25:01;-6.80;99.90
17252;DHT22;8742;51.716;8.790;2024-01-10T07:27:27;-6.80;99.90
17252;DHT22;8742;51.716;8.790;2024-01-10T07:29:54;-6.80;99.90
17252;DHT22;8742;51.716;8.790;2024-01-10T07:32:21;-6.80;99.90
17252;DHT22;8742;51.716;8.790;2024-01-10T07:34:50;-6.80;99.90
17252;DHT22;8742;51.716;8.790;2024-01-10T07:37:16;-6.80;99.90
17252;DHT22;8742;51.716;8.790;2024-01-10T07:39:46;-6.80;99.90
17252;DHT22;8742;51.716;8.790;2024-01-10T07:42:13;-6.70;99.90
17252;DHT22;8742;51.716;8.790;2024-01-10T07:44:39;-6.70;99.90
17252;DHT22;8742;51.716;8.790;2024-01-10T07:47:07;-6.70;99.90
17252;DHT22;8742;51.716;8.790;2024-01-10T07:49:34;-6.70;99.90
17252;DHT22;8742;51.716;8.790;2024-01-10T07:52:02;-6.60;99.90
17252;DHT22;8742;51.716;8.790;2024-01-10T07:54:30;-6.60;99.90
17252;DHT22;8742;51.716;8.790;2024-01-10T07:56:57;-6.60;99.90
17252;DHT22;8742;51.716;8.790;2024-01-10T07:59:24;-6.60;99.90
17252;DHT22;8742;51.716;8.790;2024-01-10T08:01:55;-6.60;99.90
17252;DHT22;8742;51.716;8.790;2024-01-10T08:04:24;-6.50;99.90
17252;DHT22;8742;51.716;8.790;2024-01-10T08:06:51;-6.40;99.90
17252;DHT22;8742;51.716;8.790;2024-01-10T08:09:19;-6.40;99.90
17252;DHT22;8742;51.716;8.790;2024-01-10T08:11:46;-6.40;99.90
17252;DHT22;8742;51.716;8.790;2024-01-10T08:14:13;-6.30;99.90
17252;DHT22;8742;51.716;8.790;2024-01-10T08:16:40;-6.30;99.90
17252;DHT22;8742;51.716;8.790;2024-01-10T08:19:08;-6.20;99.90
17252;DHT22;8742;51.716;8.790;2024-01-10T08:21:35;-6.20;99.90
17252;DHT22;8742;51.716;8.790;2024-01-10T08:24:03;-6.10;99.90
17252;DHT22;8742;51.716;8.790;2024-01-10T08:26:31;-6.10;99.90
17252;DHT22;8742;51.716;8.790;2024-01-10T08:28:58;-6.00;99.90
17252;DHT22;8742;51.716;8.790;2024-01-10T08:31:25;-5.90;99.90
17252;DHT22;8742;51.716;8.790;2024-01-10T08:33:52;-5.80;99.90
17252;DHT22;8742;51.716;8.790;2024-01-10T08:36:19;-5.80;99.90
17252;DHT22;8742;51.716;8.790;2024-01-10T08:38:46;-5.60;99.90
17252;DHT22;8742;51.716;8.790;2024-01-10T08:41:14;-5.60;99.90
17252;DHT22;8742;51.716;8.790;2024-01-10T08:43:42;-5.50;99.90
17252;DHT22;8742;51.716;8.790;2024-01-10T08:46:09;-5.40;99.90
17252;DHT22;8742;51.716;8.790;2024-01-10T08:48:36;-5.20;99.90
17252;DHT22;8742;51.716;8.790;2024-01-10T08:51:03;-5.10;99.90
17252;DHT22;8742;51.716;8.790;2024-01-10T08:53:30;-5.00;99.90
17252;DHT22;8742;51.716;8.790;2024-01-10T08:55:57;-4.60;99.90
17252;DHT22;8742;51.716;8.790;2024-01-10T08:58:24;-3.90;99.90
17252;DHT22;8742;51.716;8.790;2024-01-10T09:00:52;-3.10;99.90
17252;DHT22;8742;51.716;8.790;2024-01-10T09:03:19;-2.30;99.90
17252;DHT22;8742;51.716;8.790;2024-01-10T09:05:46;-1.60;99.90
17252;DHT22;8742;51.716;8.790;2024-01-10T09:08:13;-1.10;99.90
17252;DHT22;8742;51.716;8.790;2024-01-10T09:10:41;-0.60;99.90
17252;DHT22;8742;51.716;8.790;2024-01-10T09:13:08;-0.20;99.90
17252;DHT22;8742;51.716;8.790;2024-01-10T09:15:34;0.10;99.90
17252;DHT22;8742;51.716;8.790;2024-01-10T09:18:03;0.30;99.90
17252;DHT22;8742;51.716;8.790;2024-01-10T09:20:30;0.50;99.90
17252;DHT22;8742;51.716;8.790;2024-01-10T09:22:57;0.60;99.90
17252;DHT22;8742;51.716;8.790;2024-01-10T09:25:25;0.80;99.90
17252;DHT22;8742;51.716;8.790;2024-01-10T09:27:52;1.00;99.90
17252;DHT22;8742;51.716;8.790;2024-01-10T09:30:19;1.10;99.90
17252;DHT22;8742;51.716;8.790;2024-01-10T09:32:47;1.20;99.90
17252;DHT22;8742;51.716;8.790;2024-01-10T09:35:15;1.20;99.90
17252;DHT22;8742;51.716;8.790;2024-01-10T09:37:43;1.20;99.90
17252;DHT22;8742;51.716;8.790;2024-01-10T09:40:14;1.30;99.90
17252;DHT22;8742;51.716;8.790;2024-01-10T09:42:41;1.50;99.90
17252;DHT22;8742;51.716;8.790;2024-01-10T09:45:10;1.60;99.90
17252;DHT22;8742;51.716;8.790;2024-01-10T09:47:39;1.70;99.90
17252;DHT22;8742;51.716;8.790;2024-01-10T09:50:08;2.00;99.90
17252;DHT22;8742;51.716;8.790;2024-01-10T09:52:41;2.20;99.90
17252;DHT22;8742;51.716;8.790;2024-01-10T09:55:09;2.40;99.90
17252;DHT22;8742;51.716;8.790;2024-01-10T09:57:36;2.70;99.90
17252;DHT22;8742;51.716;8.790;2024-01-10T10:00:05;3.00;99.90
17252;DHT22;8742;51.716;8.790;2024-01-10T10:02:38;3.30;99.90
17252;DHT22;8742;51.716;8.790;2024-01-10T10:05:09;3.60;99.90
17252;DHT22;8742;51.716;8.790;2024-01-10T10:07:47;3.80;99.90
17252;DHT22;8742;51.716;8.790;2024-01-10T10:10:14;3.90;99.90
17252;DHT22;8742;51.716;8.790;2024-01-10T10:12:44;4.20;99.90
17252;DHT22;8742;51.716;8.790;2024-01-10T10:15:13;4.30;99.90
17252;DHT22;8742;51.716;8.790;2024-01-10T10:17:40;4.50;99.90
17252;DHT22;8742;51.716;8.790;2024-01-10T10:20:17;4.80;99.90
17252;DHT22;8742;51.716;8.790;2024-01-10T10:22:59;4.90;99.90
17252;DHT22;8742;51.716;8.790;2024-01-10T10:25:28;5.30;99.90
17252;DHT22;8742;51.716;8.790;2024-01-10T10:27:56;5.60;99.90
17252;DHT22;8742;51.716;8.790;2024-01-10T10:30:22;5.80;99.90
17252;DHT22;8742;51.716;8.790;2024-01-10T10:32:50;6.00;99.90
17252;DHT22;8742;51.716;8.790;2024-01-10T10:35:18;6.50;99.90
17252;DHT22;8742;51.716;8.790;2024-01-10T10:37:47;6.90;99.90
17252;DHT22;8742;51.716;8.790;2024-01-10T10:40:16;7.30;99.90
17252;DHT22;8742;51.716;8.790;2024-01-10T10:42:45;7.70;99.90
17252;DHT22;8742;51.716;8.790;2024-01-10T10:45:15;8.20;99.90
17252;DHT22;8742;51.716;8.790;2024-01-10T10:47:44;8.60;99.90
17252;DHT22;8742;51.716;8.790;2024-01-10T10:50:13;8.70;99.90
17252;DHT22;8742;51.716;8.790;2024-01-10T10:52:45;8.80;99.90
17252;DHT22;8742;51.716;8.790;2024-01-10T10:55:16;8.80;99.90
17252;DHT22;8742;51.716;8.790;2024-01-10T10:57:45;8.90;99.90
17252;DHT22;8742;51.716;8.790;2024-01-10T11:00:14;9.10;99.90
17252;DHT22;8742;51.716;8.790;2024-01-10T11:02:42;9.30;99.90
17252;DHT22;8742;51.716;8.790;2024-01-10T11:05:10;9.40;97.40
17252;DHT22;8742;51.716;8.790;2024-01-10T11:07:37;9.20;93.30
17252;DHT22;8742;51.716;8.790;2024-01-10T11:10:05;9.10;99.30
17252;DHT22;8742;51.716;8.790;2024-01-10T11:12:50;9.20;96.70
17252;DHT22;8742;51.716;8.790;2024-01-10T11:15:37;9.30;97.30
17252;DHT22;8742;51.716;8.790;2024-01-10T11:21:11;9.50;93.90
17252;DHT22;8742;51.716;8.790;2024-01-10T11:23:43;9.50;91.90
17252;DHT22;8742;51.716;8.790;2024-01-10T11:26:11;9.50;94.20
17252;DHT22;8742;51.716;8.790;2024-01-10T11:28:40;9.50;97.30
17252;DHT22;8742;51.716;8.790;2024-01-10T11:31:07;9.80;98.80
17252;DHT22;8742;51.716;8.790;2024-01-10T11:33:36;10.00;96.50
17252;DHT22;8742;51.716;8.790;2024-01-10T11:36:14;10.30;98.20
17252;DHT22;8742;51.716;8.790;2024-01-10T11:38:43;10.50;95.20
17252;DHT22;8742;51.716;8.790;2024-01-10T11:41:19;10.50;95.30
17252;DHT22;8742;51.716;8.790;2024-01-10T11:46:54;10.60;90.80
17252;DHT22;8742;51.716;8.790;2024-01-10T11:49:23;10.20;94.50
17252;DHT22;8742;51.716;8.790;2024-01-10T11:51:53;10.10;92.60
17252;DHT22;8742;51.716;8.790;2024-01-10T11:54:38;10.10;91.60
17252;DHT22;8742;51.716;8.790;2024-01-10T11:57:13;9.90;93.10
17252;DHT22;8742;51.716;8.790;2024-01-10T11:59:43;10.00;91.30
17252;DHT22;8742;51.716;8.790;2024-01-10T12:02:11;9.70;90.40
17252;DHT22;8742;51.716;8.790;2024-01-10T12:04:39;9.50;94.90
17252;DHT22;8742;51.716;8.790;2024-01-10T12:07:07;9.70;95.60
17252;DHT22;8742;51.716;8.790;2024-01-10T12:09:34;9.90;92.80
17252;DHT22;8742;51.716;8.790;2024-01-10T12:12:01;9.90;90.00
17252;DHT22;8742;51.716;8.790;2024-01-10T12:14:28;9.90;90.80
17252;DHT22;8742;51.716;8.790;2024-01-10T12:16:59;9.70;95.30
17252;DHT22;8742;51.716;8.790;2024-01-10T12:19:26;9.80;98.00
17252;DHT22;8742;51.716;8.790;2024-01-10T12:21:52;10.20;99.80
17252;DHT22;8742;51.716;8.790;2024-01-10T12:24:20;10.50;91.60
17252;DHT22;8742;51.716;8.790;2024-01-10T12:26:47;10.50;95.50
17252;DHT22;8742;51.716;8.790;2024-01-10T12:29:17;10.40;93.50
17252;DHT22;8742;51.716;8.790;2024-01-10T12:31:47;10.30;94.50
17252;DHT22;8742;51.716;8.790;2024-01-10T12:34:15;10.30;96.00
17252;DHT22;8742;51.716;8.790;2024-01-10T12:36:43;10.30;94.20
17252;DHT22;8742;51.716;8.790;2024-01-10T12:39:10;10.20;95.00
17252;DHT22;8742;51.716;8.790;2024-01-10T12:41:40;10.20;95.50
17252;DHT22;8742;51.716;8.790;2024-01-10T12:44:07;10.40;99.00
17252;DHT22;8742;51.716;8.790;2024-01-10T12:46:34;10.60;98.10
17252;DHT22;8742;51.716;8.790;2024-01-10T12:49:02;10.80;99.70
17252;DHT22;8742;51.716;8.790;2024-01-10T12:51:32;11.00;97.30
17252;DHT22;8742;51.716;8.790;2024-01-10T12:54:02;11.00;94.50
17252;DHT22;8742;51.716;8.790;2024-01-10T12:56:30;10.20;93.60
17252;DHT22;8742;51.716;8.790;2024-01-10T12:58:57;8.90;91.50
17252;DHT22;8742;51.716;8.790;2024-01-10T13:01:25;7.60;92.70
17252;DHT22;8742;51.716;8.790;2024-01-10T13:03:52;6.50;91.20
17252;DHT22;8742;51.716;8.790;2024-01-10T13:06:19;5.50;94.40
17252;DHT22;8742;51.716;8.790;2024-01-10T13:08:49;4.80;92.60
17252;DHT22;8742;51.716;8.790;2024-01-10T13:11:16;4.10;94.60
17252;DHT22;8742;51.716;8.790;2024-01-10T13:13:43;3.50;94.80
17252;DHT22;8742;51.716;8.790;2024-01-10T13:16:10;3.10;95.90
17252;DHT22;8742;51.716;8.790;2024-01-10T13:18:37;2.70;95.80
17252;DHT22;8742;51.716;8.790;2024-01-10T13:21:05;2.40;97.00
17252;DHT22;8742;51.716;8.790;2024-01-10T13:23:33;2.20;96.90
17252;DHT22;8742;51.716;8.790;2024-01-10T13:26:01;2.00;97.00
17252;DHT22;8742;51.716;8.790;2024-01-10T13:28:28;1.90;96.90
17252;DHT22;8742;51.716;8.790;2024-01-10T13:30:55;1.70;97.30
17252;DHT22;8742;51.716;8.790;2024-01-10T13:33:22;1.60;96.90
17252;DHT22;8742;51.716;8.790;2024-01-10T13:35:51;1.50;97.80
17252;DHT22;8742;51.716;8.790;2024-01-10T13:38:18;1.40;98.50
17252;DHT22;8742;51.716;8.790;2024-01-10T13:40:44;1.40;98.60
17252;DHT22;8742;51.716;8.790;2024-01-10T13:43:13;1.30;97.70
17252;DHT22;8742;51.716;8.790;2024-01-10T13:45:40;1.20;98.20
17252;DHT22;8742;51.716;8.790;2024-01-10T13:48:08;1.20;97.90
17252;DHT22;8742;51.716;8.790;2024-01-10T13:50:35;1.10;98.00
17252;DHT22;8742;51.716;8.790;2024-01-10T13:53:02;1.10;98.00
17252;DHT22;8742;51.716;8.790;2024-01-10T13:55:30;1.00;97.80
17252;DHT22;8742;51.716;8.790;2024-01-10T13:57:57;1.00;98.00
17252;DHT22;8742;51.716;8.790;2024-01-10T14:00:25;1.00;98.00
17252;DHT22;8742;51.716;8.790;2024-01-10T14:02:52;1.00;97.50
17252;DHT22;8742;51.716;8.790;2024-01-10T14:05:24;0.90;97.50
17252;DHT22;8742;51.716;8.790;2024-01-10T14:07:51;0.90;98.10
17252;DHT22;8742;51.716;8.790;2024-01-10T14:10:18;0.90;98.30
17252;DHT22;8742;51.716;8.790;2024-01-10T14:12:45;0.80;98.40
17252;DHT22;8742;51.716;8.790;2024-01-10T14:15:13;0.80;98.80
17252;DHT22;8742;51.716;8.790;2024-01-10T14:17:41;0.80;98.50
17252;DHT22;8742;51.716;8.790;2024-01-10T14:20:09;0.80;98.10
17252;DHT22;8742;51.716;8.790;2024-01-10T14:22:38;0.80;98.20
17252;DHT22;8742;51.716;8.790;2024-01-10T14:25:06;0.70;99.00
17252;DHT22;8742;51.716;8.790;2024-01-10T14:27:34;0.70;99.40
17252;DHT22;8742;51.716;8.790;2024-01-10T14:30:05;0.70;99.60
17252;DHT22;8742;51.716;8.790;2024-01-10T14:32:34;0.70;99.90
17252;DHT22;8742;51.716;8.790;2024-01-10T14:35:02;0.60;99.80
17252;DHT22;8742;51.716;8.790;2024-01-10T14:39:58;0.60;99.90
17252;DHT22;8742;51.716;8.790;2024-01-10T14:42:24;0.50;99.90
17252;DHT22;8742;51.716;8.790;2024-01-10T14:44:51;0.50;99.90
17252;DHT22;8742;51.716;8.790;2024-01-10T14:47:18;0.40;99.90
17252;DHT22;8742;51.716;8.790;2024-01-10T14:49:45;0.40;99.90
17252;DHT22;8742;51.716;8.790;2024-01-10T14:52:13;0.40;99.90
17252;DHT22;8742;51.716;8.790;2024-01-10T14:54:40;0.40;99.90
17252;DHT22;8742;51.716;8.790;2024-01-10T14:57:07;0.40;99.90
17252;DHT22;8742;51.716;8.790;2024-01-10T14:59:34;0.30;99.90
17252;DHT22;8742;51.716;8.790;2024-01-10T15:02:03;0.20;99.90
17252;DHT22;8742;51.716;8.790;2024-01-10T15:04:32;0.20;99.90
17252;DHT22;8742;51.716;8.790;2024-01-10T15:06:59;0.10;99.90
17252;DHT22;8742;51.716;8.790;2024-01-10T15:09:28;0.00;99.90
17252;DHT22;8742;51.716;8.790;2024-01-10T15:11:55;0.00;99.90
17252;DHT22;8742;51.716;8.790;2024-01-10T15:14:22;-0.10;99.90
17252;DHT22;8742;51.716;8.790;2024-01-10T15:16:48;-0.10;99.90
17252;DHT22;8742;51.716;8.790;2024-01-10T15:19:15;-0.20;99.90
17252;DHT22;8742;51.716;8.790;2024-01-10T15:21:44;-0.30;99.90
17252;DHT22;8742;51.716;8.790;2024-01-10T15:24:11;-0.30;99.90
17252;DHT22;8742;51.716;8.790;2024-01-10T15:26:39;-0.40;99.90
17252;DHT22;8742;51.716;8.790;2024-01-10T15:29:06;-0.50;99.90
17252;DHT22;8742;51.716;8.790;2024-01-10T15:31:33;-0.60;99.90
17252;DHT22;8742;51.716;8.790;2024-01-10T15:34:01;-0.60;99.90
17252;DHT22;8742;51.716;8.790;2024-01-10T15:36:28;-0.70;99.90
17252;DHT22;8742;51.716;8.790;2024-01-10T15:38:54;-0.80;99.90
17252;DHT22;8742;51.716;8.790;2024-01-10T15:41:21;-0.90;99.90
17252;DHT22;8742;51.716;8.790;2024-01-10T15:43:49;-0.90;99.90
17252;DHT22;8742;51.716;8.790;2024-01-10T15:46:19;-1.00;99.90
17252;DHT22;8742;51.716;8.790;2024-01-10T15:48:46;-1.10;99.90
17252;DHT22;8742;51.716;8.790;2024-01-10T15:51:13;-1.10;99.90
17252;DHT22;8742;51.716;8.790;2024-01-10T15:53:40;-1.10;99.90
17252;DHT22;8742;51.716;8.790;2024-01-10T15:56:09;-1.20;99.90
17252;DHT22;8742;51.716;8.790;2024-01-10T15:58:36;-1.30;99.90
17252;DHT22;8742;51.716;8.790;2024-01-10T16:01:05;-1.30;99.90